sensor_id;sensor_type;location;lat;lon;timestamp;temperature;humidity
77519;DHT22;66629;47.346;19.038;2023-03-01T00:01:04;4.40;68.84
77519;DHT22;66629;47.346;19.038;2023-03-01T00:03:30;4.40;69.03
77519;DHT22;66629;47.346;19.038;2023-03-01T00:05:55;4.40;68.99
77519;DHT22;66629;47.346;19.038;2023-03-01T00:08:21;4.43;68.62
77519;DHT22;66629;47.346;19.038;2023-03-01T00:10:46;4.46;68.71
77519;DHT22;66629;47.346;19.038;2023-03-01T00:13:11;4.44;68.40
77519;DHT22;66629;47.346;19.038;2023-03-01T00:15:40;4.44;68.69
77519;DHT22;66629;47.346;19.038;2023-03-01T00:18:08;4.46;68.56
77519;DHT22;66629;47.346;19.038;2023-03-01T00:20:34;4.50;68.73
77519;DHT22;66629;47.346;19.038;2023-03-01T00:23:00;4.51;68.37
77519;DHT22;66629;47.346;19.038;2023-03-01T00:25:25;4.53;68.48
77519;DHT22;66629;47.346;19.038;2023-03-01T00:27:51;4.50;68.37
77519;DHT22;66629;47.346;19.038;2023-03-01T00:30:16;4.54;68.23
77519;DHT22;66629;47.346;19.038;2023-03-01T00:32:42;4.51;68.45
77519;DHT22;66629;47.346;19.038;2023-03-01T00:35:07;4.46;68.42
77519;DHT22;66629;47.346;19.038;2023-03-01T00:37:33;4.47;69.09
77519;DHT22;66629;47.346;19.038;2023-03-01T00:39:58;4.51;69.07
77519;DHT22;66629;47.346;19.038;2023-03-01T00:42:24;4.51;68.89
77519;DHT22;66629;47.346;19.038;2023-03-01T00:44:49;4.46;69.10
77519;DHT22;66629;47.346;19.038;2023-03-01T00:47:15;4.43;69.30
77519;DHT22;66629;47.346;19.038;2023-03-01T00:49:40;4.40;69.38
77519;DHT22;66629;47.346;19.038;2023-03-01T00:52:05;4.40;69.56
77519;DHT22;66629;47.346;19.038;2023-03-01T00:54:31;4.36;69.52
77519;DHT22;66629;47.346;19.038;2023-03-01T00:56:56;4.34;70.04
77519;DHT22;66629;47.346;19.038;2023-03-01T00:59:22;4.29;69.71
77519;DHT22;66629;47.346;19.038;2023-03-01T01:01:47;4.32;69.83
77519;DHT22;66629;47.346;19.038;2023-03-01T01:04:13;4.29;69.38
77519;DHT22;66629;47.346;19.038;2023-03-01T01:06:43;4.39;69.12
77519;DHT22;66629;47.346;19.038;2023-03-01T01:09:12;4.36;69.25
77519;DHT22;66629;47.346;19.038;2023-03-01T01:11:51;4.34;69.34
77519;DHT22;66629;47.346;19.038;2023-03-01T01:14:18;4.34;69.33
77519;DHT22;66629;47.346;19.038;2023-03-01T01:16:43;4.32;69.24
77519;DHT22;66629;47.346;19.038;2023-03-01T01:19:11;4.19;69.36
77519;DHT22;66629;47.346;19.038;2023-03-01T01:21:36;4.19;69.41
77519;DHT22;66629;47.346;19.038;2023-03-01T01:24:03;4.20;68.54
77519;DHT22;66629;47.346;19.038;2023-03-01T01:26:31;4.28;68.77
77519;DHT22;66629;47.346;19.038;2023-03-01T01:28:57;4.23;68.57
77519;DHT22;66629;47.346;19.038;2023-03-01T01:31:23;4.26;68.61
77519;DHT22;66629;47.346;19.038;2023-03-01T01:33:49;4.30;68.23
77519;DHT22;66629;47.346;19.038;2023-03-01T01:36:15;4.32;68.54
77519;DHT22;66629;47.346;19.038;2023-03-01T01:38:41;4.24;68.73
77519;DHT22;66629;47.346;19.038;2023-03-01T01:41:08;4.28;68.50
77519;DHT22;66629;47.346;19.038;2023-03-01T01:43:35;4.30;68.58
77519;DHT22;66629;47.346;19.038;2023-03-01T01:46:06;4.29;68.58
77519;DHT22;66629;47.346;19.038;2023-03-01T01:48:44;4.28;69.17
77519;DHT22;66629;47.346;19.038;2023-03-01T01:51:23;4.24;69.31
77519;DHT22;66629;47.346;19.038;2023-03-01T01:53:53;4.29;69.65
77519;DHT22;66629;47.346;19.038;2023-03-01T01:56:21;4.33;69.26
77519;DHT22;66629;47.346;19.038;2023-03-01T01:58:48;4.29;69.73
77519;DHT22;66629;47.346;19.038;2023-03-01T02:01:14;4.33;69.82
77519;DHT22;66629;47.346;19.038;2023-03-01T02:03:42;4.30;69.65
77519;DHT22;66629;47.346;19.038;2023-03-01T02:06:30;4.22;70.07
77519;DHT22;66629;47.346;19.038;2023-03-01T02:09:00;4.20;70.18
77519;DHT22;66629;47.346;19.038;2023-03-01T02:11:29;4.24;69.79
77519;DHT22;66629;47.346;19.038;2023-03-01T02:13:55;4.29;69.55
77519;DHT22;66629;47.346;19.038;2023-03-01T02:16:20;4.26;69.55
77519;DHT22;66629;47.346;19.038;2023-03-01T02:18:46;4.26;69.58
77519;DHT22;66629;47.346;19.038;2023-03-01T02:26:56;4.30;69.31
77519;DHT22;66629;47.346;19.038;2023-03-01T02:29:25;4.30;69.53
77519;DHT22;66629;47.346;19.038;2023-03-01T02:31:52;4.32;69.40
77519;DHT22;66629;47.346;19.038;2023-03-01T02:34:23;4.32;69.22
77519;DHT22;66629;47.346;19.038;2023-03-01T02:37:02;4.34;69.14
77519;DHT22;66629;47.346;19.038;2023-03-01T02:39:34;4.44;68.90
77519;DHT22;66629;47.346;19.038;2023-03-01T02:42:02;4.41;68.94
77519;DHT22;66629;47.346;19.038;2023-03-01T02:44:29;4.48;68.93
77519;DHT22;66629;47.346;19.038;2023-03-01T02:46:56;4.46;69.01
77519;DHT22;66629;47.346;19.038;2023-03-01T02:49:28;4.37;69.45
77519;DHT22;66629;47.346;19.038;2023-03-01T02:57:20;4.43;69.67
77519;DHT22;66629;47.346;19.038;2023-03-01T02:59:48;4.48;69.90
77519;DHT22;66629;47.346;19.038;2023-03-01T03:02:25;4.51;69.70
77519;DHT22;66629;47.346;19.038;2023-03-01T03:05:03;4.43;70.10
77519;DHT22;66629;47.346;19.038;2023-03-01T03:07:32;4.40;70.56
77519;DHT22;66629;47.346;19.038;2023-03-01T03:09:58;4.36;70.61
77519;DHT22;66629;47.346;19.038;2023-03-01T03:12:23;4.34;70.76
77519;DHT22;66629;47.346;19.038;2023-03-01T03:14:49;4.32;70.98
77519;DHT22;66629;47.346;19.038;2023-03-01T03:17:14;4.30;70.80
77519;DHT22;66629;47.346;19.038;2023-03-01T03:19:39;4.29;71.25
77519;DHT22;66629;47.346;19.038;2023-03-01T03:22:05;4.30;71.09
77519;DHT22;66629;47.346;19.038;2023-03-01T03:24:30;4.28;71.21
77519;DHT22;66629;47.346;19.038;2023-03-01T03:27:03;4.26;71.67
77519;DHT22;66629;47.346;19.038;2023-03-01T03:29:30;4.22;71.81
77519;DHT22;66629;47.346;19.038;2023-03-01T03:31:56;4.17;72.30
77519;DHT22;66629;47.346;19.038;2023-03-01T03:34:22;4.24;72.38
77519;DHT22;66629;47.346;19.038;2023-03-01T03:36:53;4.19;72.66
77519;DHT22;66629;47.346;19.038;2023-03-01T03:39:23;4.16;72.96
77519;DHT22;66629;47.346;19.038;2023-03-01T03:41:49;4.17;73.21
77519;DHT22;66629;47.346;19.038;2023-03-01T03:44:15;4.16;73.40
77519;DHT22;66629;47.346;19.038;2023-03-01T03:46:41;4.10;73.74
77519;DHT22;66629;47.346;19.038;2023-03-01T03:49:06;4.10;73.39
77519;DHT22;66629;47.346;19.038;2023-03-01T03:51:32;4.16;73.34
77519;DHT22;66629;47.346;19.038;2023-03-01T03:53:57;4.16;73.23
77519;DHT22;66629;47.346;19.038;2023-03-01T03:56:23;4.05;73.57
77519;DHT22;66629;47.346;19.038;2023-03-01T03:58:51;4.07;72.88
77519;DHT22;66629;47.346;19.038;2023-03-01T04:01:17;4.07;72.42
77519;DHT22;66629;47.346;19.038;2023-03-01T04:03:42;4.12;71.62
77519;DHT22;66629;47.346;19.038;2023-03-01T04:06:12;4.07;71.31
77519;DHT22;66629;47.346;19.038;2023-03-01T04:08:37;4.16;71.04
77519;DHT22;66629;47.346;19.038;2023-03-01T04:11:04;4.09;71.12
77519;DHT22;66629;47.346;19.038;2023-03-01T04:13:48;4.06;71.36
77519;DHT22;66629;47.346;19.038;2023-03-01T04:16:14;4.09;71.21
77519;DHT22;66629;47.346;19.038;2023-03-01T04:18:39;4.12;70.62
77519;DHT22;66629;47.346;19.038;2023-03-01T04:21:05;4.12;70.58
77519;DHT22;66629;47.346;19.038;2023-03-01T04:23:31;4.09;70.69
77519;DHT22;66629;47.346;19.038;2023-03-01T04:25:58;4.05;70.81
77519;DHT22;66629;47.346;19.038;2023-03-01T04:28:27;4.03;71.18
77519;DHT22;66629;47.346;19.038;2023-03-01T04:30:55;4.03;71.13
77519;DHT22;66629;47.346;19.038;2023-03-01T04:33:21;4.06;71.07
77519;DHT22;66629;47.346;19.038;2023-03-01T04:35:47;4.07;71.08
77519;DHT22;66629;47.346;19.038;2023-03-01T04:38:15;4.05;71.32
77519;DHT22;66629;47.346;19.038;2023-03-01T04:40:41;4.06;71.14
77519;DHT22;66629;47.346;19.038;2023-03-01T04:43:08;4.06;71.44
77519;DHT22;66629;47.346;19.038;2023-03-01T04:45:34;4.07;71.34
77519;DHT22;66629;47.346;19.038;2023-03-01T04:48:00;4.03;71.69
77519;DHT22;66629;47.346;19.038;2023-03-01T04:50:25;4.05;71.71
77519;DHT22;66629;47.346;19.038;2023-03-01T04:52:51;3.99;71.97
77519;DHT22;66629;47.346;19.038;2023-03-01T04:55:17;4.02;71.85
77519;DHT22;66629;47.346;19.038;2023-03-01T04:57:43;4.07;71.71
77519;DHT22;66629;47.346;19.038;2023-03-01T05:00:11;4.10;71.72
77519;DHT22;66629;47.346;19.038;2023-03-01T05:02:54;4.05;72.03
77519;DHT22;66629;47.346;19.038;2023-03-01T05:05:28;4.03;71.98
77519;DHT22;66629;47.346;19.038;2023-03-01T05:07:55;4.12;71.70
77519;DHT22;66629;47.346;19.038;2023-03-01T05:10:21;4.09;71.84
77519;DHT22;66629;47.346;19.038;2023-03-01T05:12:47;4.07;71.98
77519;DHT22;66629;47.346;19.038;2023-03-01T05:15:12;4.10;71.80
77519;DHT22;66629;47.346;19.038;2023-03-01T05:17:38;4.05;72.16
77519;DHT22;66629;47.346;19.038;2023-03-01T05:20:03;4.02;72.31
77519;DHT22;66629;47.346;19.038;2023-03-01T05:22:33;4.03;72.35
77519;DHT22;66629;47.346;19.038;2023-03-01T05:24:59;4.02;72.41
77519;DHT22;66629;47.346;19.038;2023-03-01T05:27:24;4.09;72.23
77519;DHT22;66629;47.346;19.038;2023-03-01T05:29:50;4.09;72.11
77519;DHT22;66629;47.346;19.038;2023-03-01T05:32:15;4.09;72.03
77519;DHT22;66629;47.346;19.038;2023-03-01T05:34:41;4.12;71.98
77519;DHT22;66629;47.346;19.038;2023-03-01T05:37:07;4.10;71.85
77519;DHT22;66629;47.346;19.038;2023-03-01T05:39:35;4.03;71.82
77519;DHT22;66629;47.346;19.038;2023-03-01T05:42:01;4.05;72.05
77519;DHT22;66629;47.346;19.038;2023-03-01T05:44:28;4.13;71.59
77519;DHT22;66629;47.346;19.038;2023-03-01T05:46:54;4.16;71.43
77519;DHT22;66629;47.346;19.038;2023-03-01T05:49:20;4.12;71.65
77519;DHT22;66629;47.346;19.038;2023-03-01T05:51:51;4.16;71.74
77519;DHT22;66629;47.346;19.038;2023-03-01T05:54:17;4.13;71.86
77519;DHT22;66629;47.346;19.038;2023-03-01T05:56:44;4.15;71.92
77519;DHT22;66629;47.346;19.038;2023-03-01T05:59:10;4.12;72.12
77519;DHT22;66629;47.346;19.038;2023-03-01T06:01:36;4.13;72.06
77519;DHT22;66629;47.346;19.038;2023-03-01T06:04:03;4.20;72.11
77519;DHT22;66629;47.346;19.038;2023-03-01T06:06:29;4.19;72.10
77519;DHT22;66629;47.346;19.038;2023-03-01T06:08:55;4.19;72.05
77519;DHT22;66629;47.346;19.038;2023-03-01T06:11:21;4.17;72.06
77519;DHT22;66629;47.346;19.038;2023-03-01T06:13:47;4.19;72.21
77519;DHT22;66629;47.346;19.038;2023-03-01T06:16:13;4.19;72.00
77519;DHT22;66629;47.346;19.038;2023-03-01T06:18:39;4.23;72.14
77519;DHT22;66629;47.346;19.038;2023-03-01T06:21:05;4.30;71.77
77519;DHT22;66629;47.346;19.038;2023-03-01T06:23:31;4.24;71.58
77519;DHT22;66629;47.346;19.038;2023-03-01T06:25:56;4.28;71.48
77519;DHT22;66629;47.346;19.038;2023-03-01T06:28:22;4.32;70.48
77519;DHT22;66629;47.346;19.038;2023-03-01T06:30:49;4.30;70.35
77519;DHT22;66629;47.346;19.038;2023-03-01T06:33:14;4.32;70.33
77519;DHT22;66629;47.346;19.038;2023-03-01T06:35:40;4.30;70.31
77519;DHT22;66629;47.346;19.038;2023-03-01T06:38:05;4.39;70.07
77519;DHT22;66629;47.346;19.038;2023-03-01T06:40:31;4.43;70.15
77519;DHT22;66629;47.346;19.038;2023-03-01T06:42:57;4.43;69.91
77519;DHT22;66629;47.346;19.038;2023-03-01T06:45:23;4.41;70.11
77519;DHT22;66629;47.346;19.038;2023-03-01T06:47:49;4.47;70.01
77519;DHT22;66629;47.346;19.038;2023-03-01T06:50:16;4.46;69.89
77519;DHT22;66629;47.346;19.038;2023-03-01T06:52:41;4.47;69.60
77519;DHT22;66629;47.346;19.038;2023-03-01T06:55:09;4.50;69.68
77519;DHT22;66629;47.346;19.038;2023-03-01T06:57:34;4.51;69.58
77519;DHT22;66629;47.346;19.038;2023-03-01T07:00:00;4.51;69.49
77519;DHT22;66629;47.346;19.038;2023-03-01T07:02:25;4.60;69.20
77519;DHT22;66629;47.346;19.038;2023-03-01T07:04:52;4.61;68.91
77519;DHT22;66629;47.346;19.038;2023-03-01T07:07:18;4.74;68.87
77519;DHT22;66629;47.346;19.038;2023-03-01T07:09:44;4.67;68.81
77519;DHT22;66629;47.346;19.038;2023-03-01T07:12:10;4.65;68.66
77519;DHT22;66629;47.346;19.038;2023-03-01T07:14:36;4.65;68.34
77519;DHT22;66629;47.346;19.038;2023-03-01T07:17:01;4.72;68.97
77519;DHT22;66629;47.346;19.038;2023-03-01T07:19:26;4.83;68.75
77519;DHT22;66629;47.346;19.038;2023-03-01T07:21:53;4.89;68.52
77519;DHT22;66629;47.346;19.038;2023-03-01T07:24:20;4.86;67.67
77519;DHT22;66629;47.346;19.038;2023-03-01T07:26:49;4.85;67.97
77519;DHT22;66629;47.346;19.038;2023-03-01T07:29:15;4.96;68.01
77519;DHT22;66629;47.346;19.038;2023-03-01T07:31:41;5.03;67.92
77519;DHT22;66629;47.346;19.038;2023-03-01T07:34:06;5.15;67.57
77519;DHT22;66629;47.346;19.038;2023-03-01T07:36:32;5.16;67.67
77519;DHT22;66629;47.346;19.038;2023-03-01T07:38:58;5.20;67.09
77519;DHT22;66629;47.346;19.038;2023-03-01T07:41:23;5.23;67.43
77519;DHT22;66629;47.346;19.038;2023-03-01T07:43:49;5.19;66.84
77519;DHT22;66629;47.346;19.038;2023-03-01T07:46:14;5.26;67.44
77519;DHT22;66629;47.346;19.038;2023-03-01T07:48:40;5.42;66.77
77519;DHT22;66629;47.346;19.038;2023-03-01T07:51:06;5.40;66.06
77519;DHT22;66629;47.346;19.038;2023-03-01T07:53:32;5.49;66.10
77519;DHT22;66629;47.346;19.038;2023-03-01T07:56:12;5.65;65.41
77519;DHT22;66629;47.346;19.038;2023-03-01T07:58:40;5.65;65.16
77519;DHT22;66629;47.346;19.038;2023-03-01T08:01:07;5.76;64.75
77519;DHT22;66629;47.346;19.038;2023-03-01T08:03:34;5.56;64.86
77519;DHT22;66629;47.346;19.038;2023-03-01T08:06:00;5.70;64.36
77519;DHT22;66629;47.346;19.038;2023-03-01T08:08:26;5.55;64.16
77519;DHT22;66629;47.346;19.038;2023-03-01T08:10:52;5.75;63.80
77519;DHT22;66629;47.346;19.038;2023-03-01T08:13:18;5.87;63.67
77519;DHT22;66629;47.346;19.038;2023-03-01T08:15:48;5.79;63.41
77519;DHT22;66629;47.346;19.038;2023-03-01T08:18:14;5.93;63.96
77519;DHT22;66629;47.346;19.038;2023-03-01T08:20:40;6.01;63.60
77519;DHT22;66629;47.346;19.038;2023-03-01T08:23:05;6.14;62.88
77519;DHT22;66629;47.346;19.038;2023-03-01T08:25:30;6.18;62.67
77519;DHT22;66629;47.346;19.038;2023-03-01T08:27:56;6.32;62.06
77519;DHT22;66629;47.346;19.038;2023-03-01T08:30:21;6.20;62.37
77519;DHT22;66629;47.346;19.038;2023-03-01T08:32:49;6.18;61.65
77519;DHT22;66629;47.346;19.038;2023-03-01T08:35:14;6.10;62.05
77519;DHT22;66629;47.346;19.038;2023-03-01T08:37:39;6.24;62.16
77519;DHT22;66629;47.346;19.038;2023-03-01T08:40:05;6.29;62.07
77519;DHT22;66629;47.346;19.038;2023-03-01T08:42:32;6.18;62.11
77519;DHT22;66629;47.346;19.038;2023-03-01T08:44:57;6.31;62.06
77519;DHT22;66629;47.346;19.038;2023-03-01T08:47:23;6.27;61.84
77519;DHT22;66629;47.346;19.038;2023-03-01T08:49:50;6.16;61.82
77519;DHT22;66629;47.346;19.038;2023-03-01T08:52:15;6.34;61.94
77519;DHT22;66629;47.346;19.038;2023-03-01T08:54:41;6.46;61.78
77519;DHT22;66629;47.346;19.038;2023-03-01T08:57:06;6.36;61.49
77519;DHT22;66629;47.346;19.038;2023-03-01T08:59:31;6.53;61.28
77519;DHT22;66629;47.346;19.038;2023-03-01T09:02:08;6.67;60.93
77519;DHT22;66629;47.346;19.038;2023-03-01T09:04:35;6.73;60.56
77519;DHT22;66629;47.346;19.038;2023-03-01T09:07:00;6.86;60.06
77519;DHT22;66629;47.346;19.038;2023-03-01T09:09:26;7.08;59.67
77519;DHT22;66629;47.346;19.038;2023-03-01T09:11:51;7.15;59.03
77519;DHT22;66629;47.346;19.038;2023-03-01T09:14:17;7.33;59.19
77519;DHT22;66629;47.346;19.038;2023-03-01T09:16:42;7.47;60.20
77519;DHT22;66629;47.346;19.038;2023-03-01T09:19:08;7.20;58.76
77519;DHT22;66629;47.346;19.038;2023-03-01T09:21:33;7.42;59.56
77519;DHT22;66629;47.346;19.038;2023-03-01T09:23:58;7.78;59.43
77519;DHT22;66629;47.346;19.038;2023-03-01T09:26:24;7.85;58.89
77519;DHT22;66629;47.346;19.038;2023-03-01T09:28:51;7.96;58.36
77519;DHT22;66629;47.346;19.038;2023-03-01T09:31:19;8.19;57.79
77519;DHT22;66629;47.346;19.038;2023-03-01T09:33:47;8.06;57.69
77519;DHT22;66629;47.346;19.038;2023-03-01T09:36:17;8.13;57.72
77519;DHT22;66629;47.346;19.038;2023-03-01T09:38:43;8.47;56.89
77519;DHT22;66629;47.346;19.038;2023-03-01T09:41:31;7.91;56.84
77519;DHT22;66629;47.346;19.038;2023-03-01T09:46:41;8.57;56.54
77519;DHT22;66629;47.346;19.038;2023-03-01T09:49:15;8.65;56.26
77519;DHT22;66629;47.346;19.038;2023-03-01T09:51:47;8.88;55.38
77519;DHT22;66629;47.346;19.038;2023-03-01T09:54:15;8.67;55.94
77519;DHT22;66629;47.346;19.038;2023-03-01T09:56:57;8.82;55.87
77519;DHT22;66629;47.346;19.038;2023-03-01T10:04:50;9.56;53.28
77519;DHT22;66629;47.346;19.038;2023-03-01T10:07:44;9.76;53.08
77519;DHT22;66629;47.346;19.038;2023-03-01T10:12:52;9.87;52.93
77519;DHT22;66629;47.346;19.038;2023-03-01T10:15:22;10.00;52.63
77519;DHT22;66629;47.346;19.038;2023-03-01T10:18:01;9.96;52.51
77519;DHT22;66629;47.346;19.038;2023-03-01T10:23:27;9.82;51.59
77519;DHT22;66629;47.346;19.038;2023-03-01T10:26:12;10.22;52.26
77519;DHT22;66629;47.346;19.038;2023-03-01T10:29:08;10.62;52.39
77519;DHT22;66629;47.346;19.038;2023-03-01T10:31:46;10.39;51.24
77519;DHT22;66629;47.346;19.038;2023-03-01T10:34:16;10.01;52.28
77519;DHT22;66629;47.346;19.038;2023-03-01T10:36:44;9.75;52.50
77519;DHT22;66629;47.346;19.038;2023-03-01T10:39:24;10.17;51.98
77519;DHT22;66629;47.346;19.038;2023-03-01T10:44:43;10.08;52.83
77519;DHT22;66629;47.346;19.038;2023-03-01T10:49:52;9.89;52.52
77519;DHT22;66629;47.346;19.038;2023-03-01T10:52:20;9.91;52.83
77519;DHT22;66629;47.346;19.038;2023-03-01T10:55:02;10.17;52.63
77519;DHT22;66629;47.346;19.038;2023-03-01T10:57:38;10.22;52.67
77519;DHT22;66629;47.346;19.038;2023-03-01T11:02:38;10.49;52.05
77519;DHT22;66629;47.346;19.038;2023-03-01T11:10:36;10.73;50.76
77519;DHT22;66629;47.346;19.038;2023-03-01T11:13:14;10.85;49.96
77519;DHT22;66629;47.346;19.038;2023-03-01T11:15:41;10.50;50.36
77519;DHT22;66629;47.346;19.038;2023-03-01T11:18:19;10.46;51.58
77519;DHT22;66629;47.346;19.038;2023-03-01T11:20:46;10.41;51.88
77519;DHT22;66629;47.346;19.038;2023-03-01T11:23:15;10.31;50.74
77519;DHT22;66629;47.346;19.038;2023-03-01T11:25:55;10.25;51.79
77519;DHT22;66629;47.346;19.038;2023-03-01T11:28:22;10.32;51.58
77519;DHT22;66629;47.346;19.038;2023-03-01T11:31:02;10.10;51.72
77519;DHT22;66629;47.346;19.038;2023-03-01T11:36:48;10.56;50.95
77519;DHT22;66629;47.346;19.038;2023-03-01T11:39:36;10.46;51.23
77519;DHT22;66629;47.346;19.038;2023-03-01T11:42:25;10.53;52.10
77519;DHT22;66629;47.346;19.038;2023-03-01T11:44:55;10.76;51.18
77519;DHT22;66629;47.346;19.038;2023-03-01T11:47:30;10.65;50.29
77519;DHT22;66629;47.346;19.038;2023-03-01T11:58:31;11.11;50.84
77519;DHT22;66629;47.346;19.038;2023-03-01T12:01:11;10.52;50.96
77519;DHT22;66629;47.346;19.038;2023-03-01T12:03:46;10.97;50.53
77519;DHT22;66629;47.346;19.038;2023-03-01T12:25:31;11.92;48.64
77519;DHT22;66629;47.346;19.038;2023-03-01T12:34:11;12.22;48.69
77519;DHT22;66629;47.346;19.038;2023-03-01T12:41:50;11.60;50.18
77519;DHT22;66629;47.346;19.038;2023-03-01T12:49:56;11.44;51.19
77519;DHT22;66629;47.346;19.038;2023-03-01T12:52:33;11.56;51.21
77519;DHT22;66629;47.346;19.038;2023-03-01T12:55:02;11.67;50.71
77519;DHT22;66629;47.346;19.038;2023-03-01T12:57:59;11.43;51.00
77519;DHT22;66629;47.346;19.038;2023-03-01T13:08:20;11.74;51.45
77519;DHT22;66629;47.346;19.038;2023-03-01T13:10:58;11.67;50.98
77519;DHT22;66629;47.346;19.038;2023-03-01T13:13:27;11.91;51.74
77519;DHT22;66629;47.346;19.038;2023-03-01T13:15:53;11.85;50.51
77519;DHT22;66629;47.346;19.038;2023-03-01T13:20:49;11.39;52.63
77519;DHT22;66629;47.346;19.038;2023-03-01T13:26:03;11.76;51.50
77519;DHT22;66629;47.346;19.038;2023-03-01T13:34:00;11.83;51.35
77519;DHT22;66629;47.346;19.038;2023-03-01T13:44:24;11.87;51.27
77519;DHT22;66629;47.346;19.038;2023-03-01T13:46:53;11.43;52.56
77519;DHT22;66629;47.346;19.038;2023-03-01T13:49:25;11.94;51.90
77519;DHT22;66629;47.346;19.038;2023-03-01T13:51:51;12.11;51.23
77519;DHT22;66629;47.346;19.038;2023-03-01T13:54:27;12.09;51.12
77519;DHT22;66629;47.346;19.038;2023-03-01T13:56:54;11.70;51.24
77519;DHT22;66629;47.346;19.038;2023-03-01T13:59:22;11.78;51.43
77519;DHT22;66629;47.346;19.038;2023-03-01T14:02:11;12.11;50.80
77519;DHT22;66629;47.346;19.038;2023-03-01T14:04:37;12.49;50.43
77519;DHT22;66629;47.346;19.038;2023-03-01T14:07:21;12.56;50.48
77519;DHT22;66629;47.346;19.038;2023-03-01T14:09:51;12.40;51.11
77519;DHT22;66629;47.346;19.038;2023-03-01T14:12:44;12.02;51.06
77519;DHT22;66629;47.346;19.038;2023-03-01T14:15:39;11.88;51.51
77519;DHT22;66629;47.346;19.038;2023-03-01T14:20:40;11.76;52.62
77519;DHT22;66629;47.346;19.038;2023-03-01T14:23:12;11.60;52.43
77519;DHT22;66629;47.346;19.038;2023-03-01T14:25:52;11.77;52.80
77519;DHT22;66629;47.346;19.038;2023-03-01T14:30:49;11.90;52.11
77519;DHT22;66629;47.346;19.038;2023-03-01T14:36:12;11.98;51.83
77519;DHT22;66629;47.346;19.038;2023-03-01T14:38:41;11.92;51.67
77519;DHT22;66629;47.346;19.038;2023-03-01T14:41:23;12.05;51.94
77519;DHT22;66629;47.346;19.038;2023-03-01T14:43:56;12.12;51.88
77519;DHT22;66629;47.346;19.038;2023-03-01T14:46:29;12.14;51.71
77519;DHT22;66629;47.346;19.038;2023-03-01T14:49:02;12.05;51.45
77519;DHT22;66629;47.346;19.038;2023-03-01T14:51:28;11.97;52.12
77519;DHT22;66629;47.346;19.038;2023-03-01T14:53:53;11.67;53.18
77519;DHT22;66629;47.346;19.038;2023-03-01T14:56:19;11.65;52.92
77519;DHT22;66629;47.346;19.038;2023-03-01T14:58:46;11.59;52.75
77519;DHT22;66629;47.346;19.038;2023-03-01T15:01:16;11.67;52.93
77519;DHT22;66629;47.346;19.038;2023-03-01T15:03:45;11.65;53.38
77519;DHT22;66629;47.346;19.038;2023-03-01T15:06:15;11.67;53.33
77519;DHT22;66629;47.346;19.038;2023-03-01T15:08:42;11.70;53.63
77519;DHT22;66629;47.346;19.038;2023-03-01T15:13:38;11.67;53.25
77519;DHT22;66629;47.346;19.038;2023-03-01T15:16:13;11.62;53.09
77519;DHT22;66629;47.346;19.038;2023-03-01T15:18:49;11.49;53.35
77519;DHT22;66629;47.346;19.038;2023-03-01T15:21:29;11.46;53.84
77519;DHT22;66629;47.346;19.038;2023-03-01T15:24:16;11.52;53.50
77519;DHT22;66629;47.346;19.038;2023-03-01T15:29:21;11.42;53.91
77519;DHT22;66629;47.346;19.038;2023-03-01T15:31:59;11.38;54.28
77519;DHT22;66629;47.346;19.038;2023-03-01T15:34:34;11.21;54.59
77519;DHT22;66629;47.346;19.038;2023-03-01T15:37:01;11.21;55.06
77519;DHT22;66629;47.346;19.038;2023-03-01T15:42:10;11.16;54.50
77519;DHT22;66629;47.346;19.038;2023-03-01T15:44:38;11.10;55.06
77519;DHT22;66629;47.346;19.038;2023-03-01T15:47:22;11.04;55.38
77519;DHT22;66629;47.346;19.038;2023-03-01T15:49:52;10.96;55.32
77519;DHT22;66629;47.346;19.038;2023-03-01T15:52:25;10.87;55.76
77519;DHT22;66629;47.346;19.038;2023-03-01T15:55:01;10.89;55.71
77519;DHT22;66629;47.346;19.038;2023-03-01T15:57:27;10.77;55.96
77519;DHT22;66629;47.346;19.038;2023-03-01T15:59:52;10.79;56.27
77519;DHT22;66629;47.346;19.038;2023-03-01T16:02:18;10.77;56.44
77519;DHT22;66629;47.346;19.038;2023-03-01T16:04:46;10.69;56.67
77519;DHT22;66629;47.346;19.038;2023-03-01T16:07:13;10.58;57.16
77519;DHT22;66629;47.346;19.038;2023-03-01T16:09:39;10.48;57.53
77519;DHT22;66629;47.346;19.038;2023-03-01T16:12:05;10.48;57.26
77519;DHT22;66629;47.346;19.038;2023-03-01T16:14:31;10.37;57.67
77519;DHT22;66629;47.346;19.038;2023-03-01T16:16:56;10.31;57.79
77519;DHT22;66629;47.346;19.038;2023-03-01T16:19:21;10.22;58.17
77519;DHT22;66629;47.346;19.038;2023-03-01T16:21:47;10.15;58.49
77519;DHT22;66629;47.346;19.038;2023-03-01T16:24:14;10.08;58.59
77519;DHT22;66629;47.346;19.038;2023-03-01T16:26:39;10.07;58.51
77519;DHT22;66629;47.346;19.038;2023-03-01T16:29:05;9.97;58.74
77519;DHT22;66629;47.346;19.038;2023-03-01T16:31:31;9.91;58.90
77519;DHT22;66629;47.346;19.038;2023-03-01T16:33:58;9.82;59.10
77519;DHT22;66629;47.346;19.038;2023-03-01T16:36:24;9.79;59.30
77519;DHT22;66629;47.346;19.038;2023-03-01T16:38:52;9.65;59.62
77519;DHT22;66629;47.346;19.038;2023-03-01T16:41:20;9.55;60.25
77519;DHT22;66629;47.346;19.038;2023-03-01T16:43:46;9.45;60.37
77519;DHT22;66629;47.346;19.038;2023-03-01T16:46:20;9.37;60.88
77519;DHT22;66629;47.346;19.038;2023-03-01T16:48:46;9.28;61.13
77519;DHT22;66629;47.346;19.038;2023-03-01T16:51:11;9.14;62.06
77519;DHT22;66629;47.346;19.038;2023-03-01T16:53:37;9.03;61.57
77519;DHT22;66629;47.346;19.038;2023-03-01T16:56:05;8.83;63.00
77519;DHT22;66629;47.346;19.038;2023-03-01T16:58:31;8.72;63.17
77519;DHT22;66629;47.346;19.038;2023-03-01T17:01:13;8.64;63.33
77519;DHT22;66629;47.346;19.038;2023-03-01T17:03:39;8.54;63.70
77519;DHT22;66629;47.346;19.038;2023-03-01T17:06:08;8.37;66.35
77519;DHT22;66629;47.346;19.038;2023-03-01T17:08:34;8.32;64.55
77519;DHT22;66629;47.346;19.038;2023-03-01T17:11:11;8.22;64.45
77519;DHT22;66629;47.346;19.038;2023-03-01T17:13:37;8.30;71.89
77519;DHT22;66629;47.346;19.038;2023-03-01T17:16:04;8.30;64.48
77519;DHT22;66629;47.346;19.038;2023-03-01T17:18:31;8.25;64.45
77519;DHT22;66629;47.346;19.038;2023-03-01T17:20:57;8.19;65.31
77519;DHT22;66629;47.346;19.038;2023-03-01T17:23:23;8.13;64.97
77519;DHT22;66629;47.346;19.038;2023-03-01T17:25:48;8.06;64.99
77519;DHT22;66629;47.346;19.038;2023-03-01T17:28:14;8.02;65.21
77519;DHT22;66629;47.346;19.038;2023-03-01T17:30:43;7.87;65.78
77519;DHT22;66629;47.346;19.038;2023-03-01T17:33:10;7.79;65.96
77519;DHT22;66629;47.346;19.038;2023-03-01T17:35:36;7.61;66.78
77519;DHT22;66629;47.346;19.038;2023-03-01T17:38:03;7.63;66.30
77519;DHT22;66629;47.346;19.038;2023-03-01T17:40:29;7.56;66.30
77519;DHT22;66629;47.346;19.038;2023-03-01T17:42:54;7.53;66.39
77519;DHT22;66629;47.346;19.038;2023-03-01T17:45:21;7.50;66.48